createdAt,value
2023-05-10T00:01:38.695Z,100409.16
2023-05-10T00:04:05.845Z,100405.75
2023-05-10T00:06:32.718Z,100404.22
2023-05-10T00:08:59.398Z,100402.59
2023-05-10T00:11:25.986Z,100390.13
2023-05-10T00:13:52.683Z,100397.03
2023-05-10T00:16:19.340Z,100394.50
2023-05-10T00:18:46.008Z,100396.19
2023-05-10T00:21:12.646Z,100390.69
2023-05-10T00:23:39.734Z,100386.16
2023-05-10T00:26:06.438Z,100388.63
2023-05-10T00:28:33.059Z,100383.84
2023-05-10T00:30:59.713Z,100382.78
2023-05-10T00:33:26.402Z,100378.31
2023-05-10T00:35:53.556Z,100381.97
2023-05-10T00:38:20.142Z,100377.03
2023-05-10T00:40:47.162Z,100377.03
2023-05-10T00:43:13.758Z,100376.13
2023-05-10T00:45:42.366Z,100374.59
2023-05-10T00:48:10.621Z,100376.81
2023-05-10T00:50:37.652Z,100374.50
2023-05-10T00:53:04.678Z,100381.31
2023-05-10T00:55:32.261Z,100373.97
2023-05-10T00:57:58.969Z,100372.47
2023-05-10T01:00:26.818Z,100374.28
2023-05-10T01:02:55.234Z,100370.97
2023-05-10T01:05:22.236Z,100365.81
2023-05-10T01:07:49.235Z,100359.81
2023-05-10T01:10:16.346Z,100359.56
2023-05-10T01:12:46.174Z,100357.16
2023-05-10T01:15:15.538Z,100356.38
2023-05-10T01:17:45.198Z,100359.31
2023-05-10T01:20:13.156Z,100355.66
2023-05-10T01:23:08.436Z,100356.66
2023-05-10T01:25:59.554Z,100352.06
2023-05-10T01:28:44.436Z,100356.72
2023-05-10T01:31:35.982Z,100347.06
2023-05-10T01:34:13.988Z,100348.72
2023-05-10T01:36:43.776Z,100349.47
2023-05-10T01:39:21.471Z,100349.31
2023-05-10T01:42:15.100Z,100342.81
2023-05-10T01:44:54.383Z,100343.19
2023-05-10T01:47:51.465Z,100338.50
2023-05-10T01:50:25.719Z,100334.50
2023-05-10T01:52:55.754Z,100332.06
2023-05-10T01:55:23.892Z,100324.09
2023-05-10T01:58:10.504Z,100322.09
2023-05-10T02:00:41.070Z,100326.75
2023-05-10T02:03:09.813Z,100316.94
2023-05-10T02:05:37.752Z,100314.66
2023-05-10T02:08:07.794Z,100307.38
2023-05-10T02:10:38.618Z,100312.00
2023-05-10T02:13:08.362Z,100314.00
2023-05-10T02:15:36.197Z,100307.22
2023-05-10T02:18:05.105Z,100306.06
2023-05-10T02:20:33.428Z,100306.13
2023-05-10T02:23:02.016Z,100303.09
2023-05-10T02:25:31.434Z,100309.25
2023-05-10T02:28:01.110Z,100312.56
2023-05-10T02:30:29.925Z,100309.34
2023-05-10T02:32:57.575Z,100309.72
2023-05-10T02:35:24.840Z,100316.88
2023-05-10T02:37:53.238Z,100315.03
2023-05-10T02:40:22.454Z,100313.38
2023-05-10T02:42:51.517Z,100320.00
2023-05-10T02:45:24.572Z,100307.06
2023-05-10T02:47:52.676Z,100312.53
2023-05-10T02:50:21.212Z,100313.41
2023-05-10T02:52:51.043Z,100318.06
2023-05-10T02:55:22.132Z,100316.56
2023-05-10T02:58:01.198Z,100308.09
2023-05-10T03:00:28.139Z,100301.63
2023-05-10T03:02:55.020Z,100306.63
2023-05-10T03:05:22.097Z,100312.75
2023-05-10T03:07:49.517Z,100309.06
2023-05-10T03:10:16.455Z,100311.75
2023-05-10T03:13:02.281Z,100315.41
2023-05-10T03:15:50.171Z,100300.47
2023-05-10T03:18:24.359Z,100308.06
2023-05-10T03:20:57.606Z,100309.03
2023-05-10T03:23:31.138Z,100306.56
2023-05-10T03:25:59.014Z,100300.88
2023-05-10T03:28:27.752Z,100294.13
2023-05-10T03:30:56.247Z,100294.28
2023-05-10T03:33:22.921Z,100296.34
2023-05-10T03:35:49.540Z,100298.88
2023-05-10T03:38:16.182Z,100294.31
2023-05-10T03:40:42.923Z,100300.53
2023-05-10T03:43:12.657Z,100295.56
2023-05-10T03:45:39.261Z,100296.13
2023-05-10T03:48:06.754Z,100299.94
2023-05-10T03:50:33.396Z,100295.84
2023-05-10T03:53:00.100Z,100301.78
2023-05-10T03:55:26.810Z,100302.88
2023-05-10T03:57:54.892Z,100303.94
2023-05-10T04:00:25.047Z,100307.72
2023-05-10T04:02:51.813Z,100305.03
2023-05-10T04:05:18.708Z,100314.31
2023-05-10T04:07:46.655Z,100309.50
2023-05-10T04:10:13.566Z,100309.91
2023-05-10T04:12:40.233Z,100311.25
2023-05-10T04:15:07.809Z,100311.72
2023-05-10T04:17:34.775Z,100317.91
2023-05-10T04:20:03.498Z,100313.38
2023-05-10T04:22:31.268Z,100319.78
2023-05-10T04:24:57.863Z,100314.34
2023-05-10T04:27:24.508Z,100320.47
2023-05-10T04:29:51.668Z,100322.56
2023-05-10T04:32:20.169Z,100321.38
2023-05-10T04:34:47.309Z,100307.72
2023-05-10T04:37:13.980Z,100318.16
2023-05-10T04:39:42.310Z,100312.34
2023-05-10T04:42:09.459Z,100311.75
2023-05-10T04:44:36.421Z,100303.75
2023-05-10T04:47:03.918Z,100311.88
2023-05-10T04:49:31.209Z,100315.44
2023-05-10T04:51:57.830Z,100303.78
2023-05-10T04:54:24.688Z,100304.38
2023-05-10T04:56:51.389Z,100308.50
2023-05-10T04:59:18.225Z,100302.28
2023-05-10T05:01:44.967Z,100308.38
2023-05-10T05:04:16.591Z,100301.66
2023-05-10T05:06:44.179Z,100304.38
2023-05-10T05:09:11.353Z,100301.78
2023-05-10T05:11:38.022Z,100304.19
2023-05-10T05:14:04.641Z,100306.41
2023-05-10T05:16:32.392Z,100296.75
2023-05-10T05:18:59.019Z,100304.53
2023-05-10T05:21:27.878Z,100301.66
2023-05-10T05:23:54.645Z,100302.41
2023-05-10T05:26:21.226Z,100303.38
2023-05-10T05:28:49.783Z,100300.03
2023-05-10T05:31:16.540Z,100305.00
2023-05-10T05:33:43.238Z,100303.69
2023-05-10T05:36:10.143Z,100303.75
2023-05-10T05:38:36.747Z,100308.72
2023-05-10T05:41:04.078Z,100314.25
2023-05-10T05:43:35.020Z,100309.16
2023-05-10T05:46:02.685Z,100305.47
2023-05-10T05:48:32.601Z,100312.44
2023-05-10T05:50:59.187Z,100309.94
2023-05-10T05:53:25.842Z,100301.69
2023-05-10T05:55:56.846Z,100310.16
2023-05-10T05:58:26.069Z,100312.03
2023-05-10T06:00:53.136Z,100300.69
2023-05-10T06:03:20.482Z,100315.63
2023-05-10T06:05:47.619Z,100316.00
2023-05-10T06:08:17.472Z,100308.88
2023-05-10T06:10:44.068Z,100318.41
2023-05-10T06:13:11.142Z,100314.63
2023-05-10T06:15:37.843Z,100314.63
2023-05-10T06:18:04.684Z,100324.63
2023-05-10T06:20:32.668Z,100325.41
2023-05-10T06:22:59.715Z,100327.47
2023-05-10T06:25:26.435Z,100324.06
2023-05-10T06:27:58.057Z,100325.72
2023-05-10T06:30:31.123Z,100323.31
2023-05-10T06:33:00.946Z,100322.16
2023-05-10T06:35:27.512Z,100324.41
2023-05-10T06:37:54.540Z,100323.34
2023-05-10T06:40:21.310Z,100324.19
2023-05-10T06:42:48.804Z,100323.53
2023-05-10T06:45:17.528Z,100327.66
2023-05-10T06:47:44.716Z,100325.22
2023-05-10T06:50:14.508Z,100326.84
2023-05-10T06:52:41.047Z,100327.22
2023-05-10T06:55:08.444Z,100317.75
2023-05-10T06:57:35.059Z,100333.09
2023-05-10T07:00:05.867Z,100328.69
2023-05-10T07:02:33.936Z,100330.53
2023-05-10T07:05:15.462Z,100330.19
2023-05-10T07:07:42.703Z,100339.03
2023-05-10T07:10:10.011Z,100335.25
2023-05-10T07:12:36.774Z,100329.34
2023-05-10T07:15:04.118Z,100332.25
2023-05-10T07:17:30.866Z,100332.16
2023-05-10T07:19:57.572Z,100327.00
2023-05-10T07:22:24.152Z,100324.88
2023-05-10T07:24:50.751Z,100324.63
2023-05-10T07:27:17.423Z,100326.63
2023-05-10T07:29:44.048Z,100330.06
2023-05-10T07:32:13.704Z,100328.41
2023-05-10T07:34:42.699Z,100332.53
2023-05-10T07:37:09.341Z,100318.25
2023-05-10T07:39:36.083Z,100324.69
2023-05-10T07:42:03.929Z,100327.13
2023-05-10T07:44:30.642Z,100319.13
2023-05-10T07:46:58.264Z,100316.13
2023-05-10T07:49:25.372Z,100313.94
2023-05-10T07:51:52.069Z,100319.19
2023-05-10T07:54:18.651Z,100315.94
2023-05-10T07:56:48.039Z,100322.59
2023-05-10T07:59:17.445Z,100304.84
2023-05-10T08:01:45.388Z,100311.56
2023-05-10T08:04:15.481Z,100316.31
2023-05-10T08:06:42.423Z,100322.06
2023-05-10T08:09:10.514Z,100308.47
2023-05-10T08:11:40.731Z,100314.69
2023-05-10T08:14:07.641Z,100316.34
2023-05-10T08:16:35.317Z,100315.38
2023-05-10T08:19:02.540Z,100322.28
2023-05-10T08:21:29.587Z,100322.72
2023-05-10T08:23:56.352Z,100311.97
2023-05-10T08:26:23.039Z,100313.25
2023-05-10T08:28:50.884Z,100309.06
2023-05-10T08:31:17.657Z,100318.38
2023-05-10T08:33:44.777Z,100311.59
2023-05-10T08:36:11.656Z,100307.63
2023-05-10T08:38:39.945Z,100300.22
2023-05-10T08:41:07.179Z,100308.81
2023-05-10T08:43:37.043Z,100302.84
2023-05-10T08:46:08.821Z,100304.00
2023-05-10T08:48:35.962Z,100302.72
2023-05-10T08:51:05.376Z,100310.53
2023-05-10T08:53:34.248Z,100294.25
2023-05-10T08:56:03.167Z,100303.06
2023-05-10T08:58:29.814Z,100305.84
2023-05-10T09:00:58.115Z,100296.16
2023-05-10T09:03:24.916Z,100292.84
2023-05-10T09:05:51.791Z,100293.09
2023-05-10T09:08:18.751Z,100302.88
2023-05-10T09:10:48.363Z,100295.38
2023-05-10T09:13:15.432Z,100299.34
2023-05-10T09:15:42.464Z,100290.72
2023-05-10T09:18:09.313Z,100299.16
2023-05-10T09:20:36.160Z,100292.09
2023-05-10T09:23:02.890Z,100297.63
2023-05-10T09:25:29.632Z,100284.38
2023-05-10T09:27:56.531Z,100288.84
2023-05-10T09:30:30.167Z,100285.31
2023-05-10T09:33:00.571Z,100288.78
2023-05-10T09:35:32.522Z,100278.84
2023-05-10T09:38:03.714Z,100282.34
2023-05-10T09:40:31.812Z,100287.34
2023-05-10T09:43:02.047Z,100273.19
2023-05-10T09:45:31.118Z,100279.00
2023-05-10T09:48:00.575Z,100285.72
2023-05-10T09:50:27.760Z,100279.19
2023-05-10T09:53:04.301Z,100273.38
2023-05-10T09:55:41.256Z,100272.91
2023-05-10T09:58:11.644Z,100276.66
2023-05-10T10:00:53.359Z,100275.44
2023-05-10T10:03:21.486Z,100279.22
2023-05-10T10:05:49.759Z,100261.94
2023-05-10T10:08:18.856Z,100275.44
2023-05-10T10:10:47.176Z,100260.44
2023-05-10T10:13:14.258Z,100269.47
2023-05-10T10:15:41.738Z,100272.41
2023-05-10T10:18:13.409Z,100261.03
2023-05-10T10:20:40.185Z,100253.50
2023-05-10T10:23:06.830Z,100258.25
2023-05-10T10:25:33.681Z,100263.31
2023-05-10T10:28:58.631Z,100252.53
2023-05-10T10:31:33.461Z,100259.06
2023-05-10T10:34:08.348Z,100248.19
2023-05-10T10:36:44.857Z,100242.69
2023-05-10T10:39:12.849Z,100248.88
2023-05-10T10:41:58.792Z,100246.78
2023-05-10T10:44:37.814Z,100243.97
2023-05-10T10:47:12.854Z,100228.09
2023-05-10T10:49:49.765Z,100233.72
2023-05-10T10:52:34.749Z,100234.28
2023-05-10T10:55:23.545Z,100224.41
2023-05-10T10:58:01.138Z,100225.56
2023-05-10T11:00:31.608Z,100219.78
2023-05-10T11:03:09.007Z,100211.72
2023-05-10T11:05:49.705Z,100205.56
2023-05-10T11:08:19.419Z,100202.28
2023-05-10T11:11:13.449Z,100204.69
2023-05-10T11:13:42.500Z,100207.53
2023-05-10T11:16:26.430Z,100188.25
2023-05-10T11:19:05.454Z,100190.69
2023-05-10T11:21:33.702Z,100193.31
2023-05-10T11:24:01.934Z,100194.09
2023-05-10T11:26:34.851Z,100191.97
2023-05-10T11:29:02.972Z,100205.50
2023-05-10T11:31:30.474Z,100194.66
2023-05-10T11:33:59.881Z,100188.53
2023-05-10T11:36:28.805Z,100190.09
2023-05-10T11:38:57.733Z,100197.38
2023-05-10T11:41:26.277Z,100190.84
2023-05-10T11:43:54.964Z,100187.06
2023-05-10T11:46:25.153Z,100196.88
2023-05-10T11:48:54.052Z,100191.28
2023-05-10T11:51:24.680Z,100189.13
2023-05-10T11:53:56.276Z,100193.81
2023-05-10T11:56:24.519Z,100182.94
2023-05-10T11:58:58.741Z,100196.63
2023-05-10T12:01:27.348Z,100193.97
2023-05-10T12:03:56.444Z,100192.31
2023-05-10T12:06:23.539Z,100185.03
2023-05-10T12:08:54.679Z,100183.38
2023-05-10T12:11:25.934Z,100191.56
2023-05-10T12:13:52.783Z,100190.28
2023-05-10T12:16:29.296Z,100185.13
2023-05-10T12:19:00.826Z,100181.53
2023-05-10T12:21:29.658Z,100186.66
2023-05-10T12:24:01.303Z,100188.81
2023-05-10T12:26:29.788Z,100178.50
2023-05-10T12:29:12.436Z,100171.41
2023-05-10T12:31:57.505Z,100176.03
2023-05-10T12:34:36.100Z,100165.78
2023-05-10T12:37:05.874Z,100166.53
2023-05-10T12:39:44.016Z,100159.50
2023-05-10T12:42:11.540Z,100169.59
2023-05-10T12:44:38.186Z,100154.81
2023-05-10T12:47:04.887Z,100161.38
2023-05-10T12:49:32.269Z,100137.16
2023-05-10T12:51:59.025Z,100146.13
2023-05-10T12:54:26.253Z,100129.25
2023-05-10T12:56:52.862Z,100131.59
2023-05-10T12:59:19.515Z,100132.78
2023-05-10T13:01:46.248Z,100125.00
2023-05-10T13:04:13.029Z,100132.22
2023-05-10T13:06:40.731Z,100123.97
2023-05-10T13:09:08.035Z,100125.06
2023-05-10T13:11:35.006Z,100116.81
2023-05-10T13:14:01.707Z,100116.94
2023-05-10T13:16:28.453Z,100101.94
2023-05-10T13:18:55.197Z,100100.19
2023-05-10T13:21:21.808Z,100097.09
2023-05-10T13:23:48.529Z,100090.53
2023-05-10T13:26:16.229Z,100086.88
2023-05-10T13:28:42.884Z,100092.44
2023-05-10T13:31:09.597Z,100096.47
2023-05-10T13:33:36.222Z,100096.16
2023-05-10T13:36:02.893Z,100091.84
2023-05-10T13:38:29.501Z,100098.06
2023-05-10T13:40:56.294Z,100094.78
2023-05-10T13:43:23.003Z,100091.25
2023-05-10T13:45:49.658Z,100083.47
2023-05-10T13:48:17.393Z,100073.00
2023-05-10T13:50:44.341Z,100070.81
2023-05-10T13:53:11.086Z,100068.03
2023-05-10T13:58:22.130Z,100071.25
2023-05-10T14:00:49.007Z,100074.84
2023-05-10T14:03:15.783Z,100069.91
2023-05-10T14:05:42.441Z,100074.03
2023-05-10T14:08:10.450Z,100069.34
2023-05-10T14:10:37.950Z,100054.66
2023-05-10T14:13:04.675Z,100057.53
2023-05-10T14:15:31.749Z,100052.63
2023-05-10T14:17:58.456Z,100065.34
2023-05-10T14:20:25.149Z,100063.84
2023-05-10T14:22:54.091Z,100056.72
2023-05-10T14:25:20.835Z,100067.28
2023-05-10T14:27:47.612Z,100063.28
2023-05-10T14:30:14.583Z,100064.81
2023-05-10T14:32:41.267Z,100061.69
2023-05-10T14:35:14.047Z,100064.69
2023-05-10T14:37:42.093Z,100065.75
2023-05-10T14:40:10.349Z,100067.72
2023-05-10T14:42:37.008Z,100062.47
2023-05-10T14:45:04.808Z,100068.09
2023-05-10T14:47:31.532Z,100063.91
2023-05-10T14:49:58.150Z,100069.28
2023-05-10T14:52:24.813Z,100071.13
2023-05-10T14:54:51.445Z,100069.50
2023-05-10T14:57:18.081Z,100061.69
2023-05-10T14:59:44.688Z,100062.81
2023-05-10T15:02:12.325Z,100065.72
2023-05-10T15:04:39.445Z,100066.34
2023-05-10T15:07:06.759Z,100057.75
2023-05-10T15:09:33.463Z,100058.72
2023-05-10T15:12:00.170Z,100062.06
2023-05-10T15:14:26.783Z,100066.38
2023-05-10T15:16:53.464Z,100065.66
2023-05-10T15:19:23.557Z,100068.44
2023-05-10T15:21:51.154Z,100063.03
2023-05-10T15:24:17.877Z,100064.13
2023-05-10T15:26:44.697Z,100055.81
2023-05-10T15:29:11.466Z,100059.34
2023-05-10T15:31:40.541Z,100056.19
2023-05-10T15:34:07.296Z,100058.28
2023-05-10T15:36:33.980Z,100058.03
2023-05-10T15:39:00.584Z,100058.91
2023-05-10T15:41:27.229Z,100058.91
2023-05-10T15:43:54.727Z,100056.63
2023-05-10T15:46:21.599Z,100055.94
2023-05-10T15:48:48.372Z,100054.78
2023-05-10T15:51:15.591Z,100065.06
2023-05-10T15:53:56.478Z,100063.31
2023-05-10T15:56:31.113Z,100068.69
2023-05-10T15:58:57.869Z,100058.31
2023-05-10T16:01:24.662Z,100065.47
2023-05-10T16:03:51.533Z,100051.44
2023-05-10T16:06:18.336Z,100064.50
2023-05-10T16:08:45.032Z,100061.16
2023-05-10T16:11:11.748Z,100058.16
2023-05-10T16:13:38.452Z,100048.81
2023-05-10T16:16:06.842Z,100061.66
2023-05-10T16:18:33.566Z,100055.03
2023-05-10T16:21:01.933Z,100057.25
2023-05-10T16:23:29.065Z,100062.63
2023-05-10T16:25:55.694Z,100057.97
2023-05-10T16:28:22.574Z,100067.31
2023-05-10T16:30:49.527Z,100067.50
2023-05-10T16:33:16.880Z,100064.78
2023-05-10T16:35:44.151Z,100070.81
2023-05-10T16:38:11.241Z,100073.81
2023-05-10T16:40:37.938Z,100069.59
2023-05-10T16:43:05.617Z,100069.19
2023-05-10T16:45:32.705Z,100067.63
2023-05-10T16:47:59.359Z,100072.41
2023-05-10T16:50:26.053Z,100070.31
2023-05-10T16:52:52.670Z,100062.22
2023-05-10T16:55:19.599Z,100067.28
2023-05-10T16:57:46.411Z,100078.44
2023-05-10T17:00:13.584Z,100079.41
2023-05-10T17:02:40.501Z,100081.56
2023-05-10T17:05:07.950Z,100082.34
2023-05-10T17:07:34.766Z,100078.72
2023-05-10T17:10:01.543Z,100090.94
2023-05-10T17:12:28.208Z,100078.81
2023-05-10T17:14:54.845Z,100089.78
2023-05-10T17:17:23.812Z,100088.09
2023-05-10T17:19:50.443Z,100092.47
2023-05-10T17:22:19.748Z,100091.28
2023-05-10T17:24:46.609Z,100096.00
2023-05-10T17:27:13.797Z,100101.47
2023-05-10T17:29:40.541Z,100107.28
2023-05-10T17:32:09.151Z,100104.47
2023-05-10T17:34:36.791Z,100106.16
2023-05-10T17:37:04.000Z,100101.63
2023-05-10T17:39:30.705Z,100105.19
2023-05-10T17:41:57.394Z,100101.91
2023-05-10T17:44:25.867Z,100104.81
2023-05-10T17:46:52.637Z,100112.22
2023-05-10T17:49:19.587Z,100110.97
2023-05-10T17:51:48.197Z,100107.31
2023-05-10T17:54:15.137Z,100104.66
2023-05-10T17:56:42.122Z,100105.28
2023-05-10T17:59:08.841Z,100102.59
2023-05-10T18:01:36.678Z,100108.59
2023-05-10T18:04:06.699Z,100114.13
2023-05-10T18:06:37.232Z,100113.31
2023-05-10T18:09:05.229Z,100123.16
2023-05-10T18:11:32.004Z,100119.84
2023-05-10T18:13:59.926Z,100128.66
2023-05-10T18:16:26.933Z,100122.28
2023-05-10T18:18:53.806Z,100125.56
2023-05-10T18:21:20.653Z,100139.16
2023-05-10T18:23:47.574Z,100136.25
2023-05-10T18:26:14.821Z,100142.81
2023-05-10T18:28:42.154Z,100144.84
2023-05-10T18:31:08.936Z,100148.72
2023-05-10T18:33:35.552Z,100147.66
2023-05-10T18:36:02.461Z,100141.44
2023-05-10T18:38:30.100Z,100151.06
2023-05-10T18:40:57.795Z,100155.41
2023-05-10T18:43:27.057Z,100161.50
2023-05-10T18:45:53.718Z,100161.84
2023-05-10T18:48:21.396Z,100165.09
2023-05-10T18:50:48.560Z,100164.25
2023-05-10T18:53:15.177Z,100166.69
2023-05-10T18:55:41.739Z,100169.47
2023-05-10T18:58:08.492Z,100170.09
2023-05-10T19:00:38.235Z,100174.06
2023-05-10T19:03:04.938Z,100181.75
2023-05-10T19:05:31.817Z,100179.31
2023-05-10T19:07:58.585Z,100186.47
2023-05-10T19:10:28.047Z,100178.06
2023-05-10T19:12:54.967Z,100179.28
2023-05-10T19:15:22.272Z,100182.19
2023-05-10T19:17:50.356Z,100186.19
2023-05-10T19:20:17.819Z,100185.72
2023-05-10T19:23:02.208Z,100196.28
2023-05-10T19:25:34.880Z,100190.22
2023-05-10T19:28:01.955Z,100195.47
2023-05-10T19:30:30.627Z,100201.66
2023-05-10T19:32:58.167Z,100195.94
2023-05-10T19:35:25.105Z,100201.66
2023-05-10T19:37:52.053Z,100196.69
2023-05-10T19:40:18.998Z,100193.41
2023-05-10T19:42:45.908Z,100202.75
2023-05-10T19:45:12.954Z,100206.63
2023-05-10T19:47:40.036Z,100199.91
2023-05-10T19:50:07.832Z,100200.03
2023-05-10T19:52:34.725Z,100203.31
2023-05-10T19:55:01.651Z,100201.06
2023-05-10T19:57:28.509Z,100204.28
2023-05-10T19:59:55.371Z,100202.16
2023-05-10T20:02:22.287Z,100203.81
2023-05-10T20:04:49.024Z,100206.38
2023-05-10T20:07:15.974Z,100206.25
2023-05-10T20:09:44.531Z,100207.78
2023-05-10T20:12:11.413Z,100204.84
2023-05-10T20:14:38.499Z,100206.22
2023-05-10T20:17:05.810Z,100200.53
2023-05-10T20:19:32.731Z,100211.06
2023-05-10T20:21:59.983Z,100206.47
2023-05-10T20:24:26.885Z,100209.72
2023-05-10T20:26:54.080Z,100216.63
2023-05-10T20:29:21.087Z,100220.75
2023-05-10T20:31:47.922Z,100219.47
2023-05-10T20:34:14.770Z,100219.38
2023-05-10T20:36:41.648Z,100224.72
2023-05-10T20:39:09.483Z,100218.13
2023-05-10T20:41:36.375Z,100215.22
2023-05-10T20:44:03.377Z,100216.31
2023-05-10T20:46:30.745Z,100217.47
2023-05-10T20:48:57.740Z,100219.97
2023-05-10T20:51:24.686Z,100214.66
2023-05-10T20:53:51.783Z,100221.81
2023-05-10T20:56:19.013Z,100207.41
2023-05-10T20:58:45.729Z,100208.69
2023-05-10T21:01:12.526Z,100204.47
2023-05-10T21:03:39.204Z,100204.09
2023-05-10T21:06:05.890Z,100205.38
2023-05-10T21:08:32.460Z,100202.72
2023-05-10T21:10:59.641Z,100197.50
2023-05-10T21:13:26.372Z,100195.19
2023-05-10T21:15:53.305Z,100197.75
2023-05-10T21:18:20.011Z,100201.44
2023-05-10T21:20:46.654Z,100198.31
2023-05-10T21:23:13.699Z,100197.38
2023-05-10T21:25:40.368Z,100194.72
2023-05-10T21:28:07.176Z,100187.31
2023-05-10T21:30:33.989Z,100194.53
2023-05-10T21:33:01.758Z,100192.63
2023-05-10T21:35:30.407Z,100192.25
2023-05-10T21:37:57.453Z,100197.56
2023-05-10T21:40:24.290Z,100197.69
2023-05-10T21:42:51.134Z,100192.00
2023-05-10T21:45:19.268Z,100195.28
2023-05-10T21:47:46.283Z,100192.63
2023-05-10T21:50:13.032Z,100197.38
2023-05-10T21:52:39.846Z,100193.06
2023-05-10T21:55:08.544Z,100198.59
2023-05-10T21:57:35.284Z,100196.19
2023-05-10T22:00:01.895Z,100194.53
2023-05-10T22:02:29.617Z,100193.34
2023-05-10T22:04:59.640Z,100195.19
2023-05-10T22:07:26.527Z,100188.97
2023-05-10T22:09:53.110Z,100192.06
2023-05-10T22:12:19.700Z,100185.38
2023-05-10T22:14:47.528Z,100184.09
2023-05-10T22:17:16.780Z,100188.13
2023-05-10T22:19:43.607Z,100183.25
2023-05-10T22:22:11.896Z,100190.59
2023-05-10T22:24:38.650Z,100187.28
2023-05-10T22:27:05.721Z,100187.75
2023-05-10T22:29:32.416Z,100180.97
2023-05-10T22:31:59.062Z,100186.03
2023-05-10T22:34:25.800Z,100184.84
2023-05-10T22:36:52.617Z,100181.06
2023-05-10T22:39:19.212Z,100189.69
2023-05-10T22:41:45.818Z,100183.53
2023-05-10T22:44:12.423Z,100189.88
2023-05-10T22:46:39.126Z,100188.41
2023-05-10T22:49:06.310Z,100178.81
2023-05-10T22:51:32.944Z,100181.63
2023-05-10T22:53:59.532Z,100182.00
2023-05-10T22:56:26.141Z,100189.72
2023-05-10T22:58:52.869Z,100186.25
2023-05-10T23:01:19.540Z,100180.66
2023-05-10T23:03:46.698Z,100193.41
2023-05-10T23:06:13.517Z,100190.47
2023-05-10T23:08:40.212Z,100191.13
2023-05-10T23:11:06.885Z,100196.94
2023-05-10T23:13:33.710Z,100182.81
2023-05-10T23:16:06.600Z,100182.53
2023-05-10T23:18:34.419Z,100182.91
2023-05-10T23:21:01.146Z,100186.25
2023-05-10T23:23:30.235Z,100180.00
2023-05-10T23:25:56.866Z,100181.88
2023-05-10T23:28:23.476Z,100187.06
2023-05-10T23:30:55.663Z,100186.16
2023-05-10T23:33:22.981Z,100177.75
2023-05-10T23:35:49.643Z,100188.16
2023-05-10T23:38:16.650Z,100184.22
2023-05-10T23:40:43.350Z,100178.88
2023-05-10T23:43:09.958Z,100172.91
2023-05-10T23:45:36.634Z,100181.47
2023-05-10T23:48:03.480Z,100175.50
2023-05-10T23:50:30.184Z,100175.75
2023-05-10T23:52:56.836Z,100172.78
2023-05-10T23:55:23.496Z,100173.56
2023-05-10T23:57:50.123Z,100174.91
